sensor_id;sensor_type;location;lat;lon;timestamp;temperature;humidity
64620;DHT22;51029;51.058;13.826;2023-03-31T00:01:17;10.30;99.90
64620;DHT22;51029;51.058;13.826;2023-03-31T00:03:44;10.20;99.90
64620;DHT22;51029;51.058;13.826;2023-03-31T00:06:11;10.30;99.90
64620;DHT22;51029;51.058;13.826;2023-03-31T00:08:42;10.30;99.90
64620;DHT22;51029;51.058;13.826;2023-03-31T00:11:08;10.30;99.90
64620;DHT22;51029;51.058;13.826;2023-03-31T00:13:35;10.30;99.90
64620;DHT22;51029;51.058;13.826;2023-03-31T00:16:06;10.30;99.90
64620;DHT22;51029;51.058;13.826;2023-03-31T00:18:32;10.30;99.90
64620;DHT22;51029;51.058;13.826;2023-03-31T00:21:10;10.30;99.90
64620;DHT22;51029;51.058;13.826;2023-03-31T00:23:40;10.30;99.90
64620;DHT22;51029;51.058;13.826;2023-03-31T00:26:05;10.30;99.90
64620;DHT22;51029;51.058;13.826;2023-03-31T00:28:31;10.20;99.90
64620;DHT22;51029;51.058;13.826;2023-03-31T00:31:02;10.20;99.90
64620;DHT22;51029;51.058;13.826;2023-03-31T00:33:27;10.20;99.90
64620;DHT22;51029;51.058;13.826;2023-03-31T00:35:54;10.10;99.90
64620;DHT22;51029;51.058;13.826;2023-03-31T00:38:19;10.10;99.90
64620;DHT22;51029;51.058;13.826;2023-03-31T00:40:46;10.10;99.90
64620;DHT22;51029;51.058;13.826;2023-03-31T00:43:25;10.10;99.90
64620;DHT22;51029;51.058;13.826;2023-03-31T00:45:51;10.10;99.90
64620;DHT22;51029;51.058;13.826;2023-03-31T00:48:18;10.10;99.90
64620;DHT22;51029;51.058;13.826;2023-03-31T00:50:52;10.10;99.90
64620;DHT22;51029;51.058;13.826;2023-03-31T00:53:21;10.00;99.90
64620;DHT22;51029;51.058;13.826;2023-03-31T00:55:52;10.00;99.90
64620;DHT22;51029;51.058;13.826;2023-03-31T00:58:19;10.00;99.90
64620;DHT22;51029;51.058;13.826;2023-03-31T01:00:46;10.00;99.90
64620;DHT22;51029;51.058;13.826;2023-03-31T01:03:13;10.10;99.90
64620;DHT22;51029;51.058;13.826;2023-03-31T01:08:09;10.10;99.90
64620;DHT22;51029;51.058;13.826;2023-03-31T01:10:39;10.00;99.90
64620;DHT22;51029;51.058;13.826;2023-03-31T01:13:10;10.00;99.90
64620;DHT22;51029;51.058;13.826;2023-03-31T01:15:37;10.00;99.90
64620;DHT22;51029;51.058;13.826;2023-03-31T01:18:05;10.00;99.90
64620;DHT22;51029;51.058;13.826;2023-03-31T01:21:16;10.00;99.90
64620;DHT22;51029;51.058;13.826;2023-03-31T01:37:56;9.80;99.90
64620;DHT22;51029;51.058;13.826;2023-03-31T01:40:42;9.60;99.90
64620;DHT22;51029;51.058;13.826;2023-03-31T01:48:53;9.60;99.90
64620;DHT22;51029;51.058;13.826;2023-03-31T01:54:20;9.50;99.90
64620;DHT22;51029;51.058;13.826;2023-03-31T01:56:52;9.40;99.90
64620;DHT22;51029;51.058;13.826;2023-03-31T01:59:27;9.40;99.90
64620;DHT22;51029;51.058;13.826;2023-03-31T02:02:08;9.50;99.90
64620;DHT22;51029;51.058;13.826;2023-03-31T02:04:40;9.60;99.90
64620;DHT22;51029;51.058;13.826;2023-03-31T02:07:15;9.50;99.90
64620;DHT22;51029;51.058;13.826;2023-03-31T02:09:46;9.40;99.90
64620;DHT22;51029;51.058;13.826;2023-03-31T02:12:14;9.30;99.90
64620;DHT22;51029;51.058;13.826;2023-03-31T02:14:44;9.30;99.90
64620;DHT22;51029;51.058;13.826;2023-03-31T02:17:14;9.20;99.90
64620;DHT22;51029;51.058;13.826;2023-03-31T02:19:44;9.10;99.90
64620;DHT22;51029;51.058;13.826;2023-03-31T02:22:12;9.10;99.90
64620;DHT22;51029;51.058;13.826;2023-03-31T02:24:39;9.00;99.90
64620;DHT22;51029;51.058;13.826;2023-03-31T02:27:17;8.90;99.90
64620;DHT22;51029;51.058;13.826;2023-03-31T02:29:45;8.80;99.90
64620;DHT22;51029;51.058;13.826;2023-03-31T02:32:20;8.70;99.90
64620;DHT22;51029;51.058;13.826;2023-03-31T02:34:47;8.70;99.90
64620;DHT22;51029;51.058;13.826;2023-03-31T02:37:12;8.60;99.90
64620;DHT22;51029;51.058;13.826;2023-03-31T02:39:41;8.60;99.90
64620;DHT22;51029;51.058;13.826;2023-03-31T02:42:08;8.60;99.90
64620;DHT22;51029;51.058;13.826;2023-03-31T02:44:34;8.50;99.90
64620;DHT22;51029;51.058;13.826;2023-03-31T02:47:02;8.40;99.90
64620;DHT22;51029;51.058;13.826;2023-03-31T02:49:29;8.30;99.90
64620;DHT22;51029;51.058;13.826;2023-03-31T03:01:10;8.20;99.90
64620;DHT22;51029;51.058;13.826;2023-03-31T03:06:43;8.20;99.90
64620;DHT22;51029;51.058;13.826;2023-03-31T03:12:09;8.30;99.90
64620;DHT22;51029;51.058;13.826;2023-03-31T03:15:01;8.40;99.90
64620;DHT22;51029;51.058;13.826;2023-03-31T03:17:38;8.40;99.90
64620;DHT22;51029;51.058;13.826;2023-03-31T03:20:06;8.40;99.90
64620;DHT22;51029;51.058;13.826;2023-03-31T03:22:34;8.50;99.90
64620;DHT22;51029;51.058;13.826;2023-03-31T03:25:00;8.50;99.90
64620;DHT22;51029;51.058;13.826;2023-03-31T03:27:26;8.60;99.90
64620;DHT22;51029;51.058;13.826;2023-03-31T03:29:52;8.50;99.90
64620;DHT22;51029;51.058;13.826;2023-03-31T03:32:18;8.60;99.90
64620;DHT22;51029;51.058;13.826;2023-03-31T03:34:44;8.60;99.90
64620;DHT22;51029;51.058;13.826;2023-03-31T03:37:09;8.60;99.90
64620;DHT22;51029;51.058;13.826;2023-03-31T03:39:35;8.70;99.90
64620;DHT22;51029;51.058;13.826;2023-03-31T03:42:00;8.70;99.90
64620;DHT22;51029;51.058;13.826;2023-03-31T03:44:26;8.80;99.90
64620;DHT22;51029;51.058;13.826;2023-03-31T03:46:51;8.80;99.90
64620;DHT22;51029;51.058;13.826;2023-03-31T03:49:17;8.90;99.90
64620;DHT22;51029;51.058;13.826;2023-03-31T03:51:43;8.90;99.90
64620;DHT22;51029;51.058;13.826;2023-03-31T03:57:30;9.00;99.90
64620;DHT22;51029;51.058;13.826;2023-03-31T03:59:56;9.10;99.90
64620;DHT22;51029;51.058;13.826;2023-03-31T04:02:21;9.20;99.90
64620;DHT22;51029;51.058;13.826;2023-03-31T04:04:47;9.30;99.90
64620;DHT22;51029;51.058;13.826;2023-03-31T04:07:12;9.30;99.90
64620;DHT22;51029;51.058;13.826;2023-03-31T04:09:38;9.30;99.90
64620;DHT22;51029;51.058;13.826;2023-03-31T04:12:03;9.40;99.90
64620;DHT22;51029;51.058;13.826;2023-03-31T04:14:29;9.40;99.90
64620;DHT22;51029;51.058;13.826;2023-03-31T04:16:55;9.40;99.90
64620;DHT22;51029;51.058;13.826;2023-03-31T04:19:21;9.40;99.90
64620;DHT22;51029;51.058;13.826;2023-03-31T04:21:50;9.50;99.90
64620;DHT22;51029;51.058;13.826;2023-03-31T04:24:24;9.50;99.90
64620;DHT22;51029;51.058;13.826;2023-03-31T04:26:55;9.50;99.90
64620;DHT22;51029;51.058;13.826;2023-03-31T04:29:21;9.50;99.90
64620;DHT22;51029;51.058;13.826;2023-03-31T04:31:54;9.50;99.90
64620;DHT22;51029;51.058;13.826;2023-03-31T04:34:23;9.50;99.90
64620;DHT22;51029;51.058;13.826;2023-03-31T04:36:51;9.50;99.90
64620;DHT22;51029;51.058;13.826;2023-03-31T04:39:20;9.40;99.90
64620;DHT22;51029;51.058;13.826;2023-03-31T04:41:55;9.40;99.90
64620;DHT22;51029;51.058;13.826;2023-03-31T04:44:21;9.50;99.90
64620;DHT22;51029;51.058;13.826;2023-03-31T04:46:47;9.40;99.90
64620;DHT22;51029;51.058;13.826;2023-03-31T04:49:13;9.50;99.90
64620;DHT22;51029;51.058;13.826;2023-03-31T04:51:38;9.70;99.90
64620;DHT22;51029;51.058;13.826;2023-03-31T04:54:04;9.90;99.90
64620;DHT22;51029;51.058;13.826;2023-03-31T04:56:29;9.90;99.90
64620;DHT22;51029;51.058;13.826;2023-03-31T04:58:55;10.00;99.90
64620;DHT22;51029;51.058;13.826;2023-03-31T05:01:20;10.00;99.90
64620;DHT22;51029;51.058;13.826;2023-03-31T05:03:46;10.10;99.90
64620;DHT22;51029;51.058;13.826;2023-03-31T05:06:16;10.10;99.90
64620;DHT22;51029;51.058;13.826;2023-03-31T05:08:42;10.10;99.90
64620;DHT22;51029;51.058;13.826;2023-03-31T05:11:07;10.10;99.90
64620;DHT22;51029;51.058;13.826;2023-03-31T05:13:33;10.10;99.90
64620;DHT22;51029;51.058;13.826;2023-03-31T05:16:08;10.10;99.90
64620;DHT22;51029;51.058;13.826;2023-03-31T05:18:35;10.10;99.90
64620;DHT22;51029;51.058;13.826;2023-03-31T05:21:11;10.10;99.90
64620;DHT22;51029;51.058;13.826;2023-03-31T05:23:38;10.10;99.90
64620;DHT22;51029;51.058;13.826;2023-03-31T05:26:04;10.10;99.90
64620;DHT22;51029;51.058;13.826;2023-03-31T05:28:30;10.00;99.90
64620;DHT22;51029;51.058;13.826;2023-03-31T05:30:58;10.00;99.90
64620;DHT22;51029;51.058;13.826;2023-03-31T05:33:24;9.90;99.90
64620;DHT22;51029;51.058;13.826;2023-03-31T05:35:50;9.90;99.90
64620;DHT22;51029;51.058;13.826;2023-03-31T05:38:15;9.90;99.90
64620;DHT22;51029;51.058;13.826;2023-03-31T05:40:41;9.80;99.90
64620;DHT22;51029;51.058;13.826;2023-03-31T05:43:06;9.90;99.90
64620;DHT22;51029;51.058;13.826;2023-03-31T05:45:32;10.10;99.90
64620;DHT22;51029;51.058;13.826;2023-03-31T05:47:57;10.30;99.90
64620;DHT22;51029;51.058;13.826;2023-03-31T05:50:23;10.40;99.90
64620;DHT22;51029;51.058;13.826;2023-03-31T05:52:48;10.50;99.90
64620;DHT22;51029;51.058;13.826;2023-03-31T05:55:14;10.60;99.90
64620;DHT22;51029;51.058;13.826;2023-03-31T05:57:40;10.70;99.90
64620;DHT22;51029;51.058;13.826;2023-03-31T06:00:06;10.80;99.90
64620;DHT22;51029;51.058;13.826;2023-03-31T06:02:34;10.90;99.90
64620;DHT22;51029;51.058;13.826;2023-03-31T06:05:00;11.00;99.90
64620;DHT22;51029;51.058;13.826;2023-03-31T06:07:26;11.10;99.90
64620;DHT22;51029;51.058;13.826;2023-03-31T06:09:51;11.20;99.90
64620;DHT22;51029;51.058;13.826;2023-03-31T06:12:17;11.30;99.90
64620;DHT22;51029;51.058;13.826;2023-03-31T06:14:43;11.50;99.90
64620;DHT22;51029;51.058;13.826;2023-03-31T06:17:08;11.60;99.90
64620;DHT22;51029;51.058;13.826;2023-03-31T06:19:33;11.70;99.90
64620;DHT22;51029;51.058;13.826;2023-03-31T06:21:59;11.80;99.90
64620;DHT22;51029;51.058;13.826;2023-03-31T06:24:25;11.90;99.90
64620;DHT22;51029;51.058;13.826;2023-03-31T06:26:50;12.00;99.90
64620;DHT22;51029;51.058;13.826;2023-03-31T06:29:15;12.10;99.90
64620;DHT22;51029;51.058;13.826;2023-03-31T06:31:41;12.10;99.90
64620;DHT22;51029;51.058;13.826;2023-03-31T06:34:06;12.20;99.90
64620;DHT22;51029;51.058;13.826;2023-03-31T06:36:32;12.30;99.90
64620;DHT22;51029;51.058;13.826;2023-03-31T06:38:57;12.40;99.90
64620;DHT22;51029;51.058;13.826;2023-03-31T06:41:23;12.40;99.90
64620;DHT22;51029;51.058;13.826;2023-03-31T06:43:49;12.50;99.90
64620;DHT22;51029;51.058;13.826;2023-03-31T06:46:14;12.70;99.90
64620;DHT22;51029;51.058;13.826;2023-03-31T06:48:40;12.80;99.90
64620;DHT22;51029;51.058;13.826;2023-03-31T06:51:07;12.90;99.90
64620;DHT22;51029;51.058;13.826;2023-03-31T06:53:33;13.10;99.90
64620;DHT22;51029;51.058;13.826;2023-03-31T06:55:58;13.30;99.90
64620;DHT22;51029;51.058;13.826;2023-03-31T06:58:24;13.70;99.90
64620;DHT22;51029;51.058;13.826;2023-03-31T07:00:50;14.10;99.90
64620;DHT22;51029;51.058;13.826;2023-03-31T07:03:15;14.30;99.90
64620;DHT22;51029;51.058;13.826;2023-03-31T07:05:48;14.60;99.90
64620;DHT22;51029;51.058;13.826;2023-03-31T07:08:13;14.80;99.90
64620;DHT22;51029;51.058;13.826;2023-03-31T07:10:39;15.10;99.90
64620;DHT22;51029;51.058;13.826;2023-03-31T07:13:05;15.00;99.90
64620;DHT22;51029;51.058;13.826;2023-03-31T07:15:30;15.10;99.90
64620;DHT22;51029;51.058;13.826;2023-03-31T07:17:56;14.90;99.90
64620;DHT22;51029;51.058;13.826;2023-03-31T07:20:27;14.90;99.90
64620;DHT22;51029;51.058;13.826;2023-03-31T07:22:52;14.70;99.90
64620;DHT22;51029;51.058;13.826;2023-03-31T07:25:18;14.40;99.90
64620;DHT22;51029;51.058;13.826;2023-03-31T07:27:43;14.30;99.90
64620;DHT22;51029;51.058;13.826;2023-03-31T07:30:14;14.20;99.90
64620;DHT22;51029;51.058;13.826;2023-03-31T07:32:39;14.10;99.90
64620;DHT22;51029;51.058;13.826;2023-03-31T07:35:06;14.20;99.90
64620;DHT22;51029;51.058;13.826;2023-03-31T07:37:36;14.20;99.90
64620;DHT22;51029;51.058;13.826;2023-03-31T07:40:04;14.30;99.90
64620;DHT22;51029;51.058;13.826;2023-03-31T07:42:31;14.40;99.90
64620;DHT22;51029;51.058;13.826;2023-03-31T07:44:57;14.60;99.90
64620;DHT22;51029;51.058;13.826;2023-03-31T07:47:23;14.80;99.90
64620;DHT22;51029;51.058;13.826;2023-03-31T07:49:49;15.10;99.90
64620;DHT22;51029;51.058;13.826;2023-03-31T07:52:15;15.70;99.90
64620;DHT22;51029;51.058;13.826;2023-03-31T07:54:41;16.00;99.90
64620;DHT22;51029;51.058;13.826;2023-03-31T07:57:07;16.40;99.90
64620;DHT22;51029;51.058;13.826;2023-03-31T07:59:33;16.50;99.90
64620;DHT22;51029;51.058;13.826;2023-03-31T08:01:58;16.60;99.90
64620;DHT22;51029;51.058;13.826;2023-03-31T08:04:24;16.50;99.90
64620;DHT22;51029;51.058;13.826;2023-03-31T08:06:49;16.20;99.90
64620;DHT22;51029;51.058;13.826;2023-03-31T08:09:16;16.10;99.90
64620;DHT22;51029;51.058;13.826;2023-03-31T08:11:42;15.90;99.90
64620;DHT22;51029;51.058;13.826;2023-03-31T08:14:07;15.90;99.90
64620;DHT22;51029;51.058;13.826;2023-03-31T08:16:33;15.90;99.90
64620;DHT22;51029;51.058;13.826;2023-03-31T08:18:58;15.60;99.90
64620;DHT22;51029;51.058;13.826;2023-03-31T08:21:24;15.50;99.90
64620;DHT22;51029;51.058;13.826;2023-03-31T08:23:53;15.30;99.90
64620;DHT22;51029;51.058;13.826;2023-03-31T08:26:18;15.20;99.90
64620;DHT22;51029;51.058;13.826;2023-03-31T08:28:45;15.20;99.90
64620;DHT22;51029;51.058;13.826;2023-03-31T08:31:13;15.00;99.90
64620;DHT22;51029;51.058;13.826;2023-03-31T08:33:40;14.90;99.90
64620;DHT22;51029;51.058;13.826;2023-03-31T08:36:07;14.90;99.90
64620;DHT22;51029;51.058;13.826;2023-03-31T08:38:38;14.80;99.90
64620;DHT22;51029;51.058;13.826;2023-03-31T08:41:09;14.80;99.90
64620;DHT22;51029;51.058;13.826;2023-03-31T08:43:44;14.70;99.90
64620;DHT22;51029;51.058;13.826;2023-03-31T08:46:12;14.60;99.90
64620;DHT22;51029;51.058;13.826;2023-03-31T08:48:45;14.50;99.90
64620;DHT22;51029;51.058;13.826;2023-03-31T08:54:05;14.30;99.90
64620;DHT22;51029;51.058;13.826;2023-03-31T08:56:37;14.30;99.90
64620;DHT22;51029;51.058;13.826;2023-03-31T08:59:06;14.30;99.90
64620;DHT22;51029;51.058;13.826;2023-03-31T09:04:54;14.30;99.90
64620;DHT22;51029;51.058;13.826;2023-03-31T09:12:50;14.20;99.90
64620;DHT22;51029;51.058;13.826;2023-03-31T09:15:28;14.20;99.90
64620;DHT22;51029;51.058;13.826;2023-03-31T09:18:02;14.10;99.90
64620;DHT22;51029;51.058;13.826;2023-03-31T09:20:33;14.00;99.90
64620;DHT22;51029;51.058;13.826;2023-03-31T09:23:14;13.90;99.90
64620;DHT22;51029;51.058;13.826;2023-03-31T09:25:46;13.90;99.90
64620;DHT22;51029;51.058;13.826;2023-03-31T09:28:30;13.90;99.90
64620;DHT22;51029;51.058;13.826;2023-03-31T09:30:56;13.90;99.90
64620;DHT22;51029;51.058;13.826;2023-03-31T09:33:27;13.90;99.90
64620;DHT22;51029;51.058;13.826;2023-03-31T09:35:57;13.90;99.90
64620;DHT22;51029;51.058;13.826;2023-03-31T09:38:23;13.90;99.90
64620;DHT22;51029;51.058;13.826;2023-03-31T09:40:48;13.90;99.90
64620;DHT22;51029;51.058;13.826;2023-03-31T09:43:24;14.00;99.90
64620;DHT22;51029;51.058;13.826;2023-03-31T09:45:51;14.00;99.90
64620;DHT22;51029;51.058;13.826;2023-03-31T09:48:22;14.10;99.90
64620;DHT22;51029;51.058;13.826;2023-03-31T09:50:54;14.10;99.90
64620;DHT22;51029;51.058;13.826;2023-03-31T09:53:30;14.20;99.90
64620;DHT22;51029;51.058;13.826;2023-03-31T09:56:00;14.20;99.90
64620;DHT22;51029;51.058;13.826;2023-03-31T09:58:26;14.30;99.90
64620;DHT22;51029;51.058;13.826;2023-03-31T10:01:04;14.20;99.90
64620;DHT22;51029;51.058;13.826;2023-03-31T10:03:31;14.10;99.90
64620;DHT22;51029;51.058;13.826;2023-03-31T10:06:07;14.00;99.90
64620;DHT22;51029;51.058;13.826;2023-03-31T10:08:39;13.90;99.90
64620;DHT22;51029;51.058;13.826;2023-03-31T10:11:09;13.70;99.90
64620;DHT22;51029;51.058;13.826;2023-03-31T10:14:01;13.70;99.90
64620;DHT22;51029;51.058;13.826;2023-03-31T10:16:32;13.70;99.90
64620;DHT22;51029;51.058;13.826;2023-03-31T10:19:25;13.80;99.90
64620;DHT22;51029;51.058;13.826;2023-03-31T10:21:59;13.80;99.90
64620;DHT22;51029;51.058;13.826;2023-03-31T10:24:36;13.70;99.90
64620;DHT22;51029;51.058;13.826;2023-03-31T10:27:04;13.50;99.90
64620;DHT22;51029;51.058;13.826;2023-03-31T10:29:32;13.40;99.90
64620;DHT22;51029;51.058;13.826;2023-03-31T10:32:25;13.40;99.90
64620;DHT22;51029;51.058;13.826;2023-03-31T10:34:54;13.30;99.90
64620;DHT22;51029;51.058;13.826;2023-03-31T10:37:23;13.30;99.90
64620;DHT22;51029;51.058;13.826;2023-03-31T10:39:59;13.20;99.90
64620;DHT22;51029;51.058;13.826;2023-03-31T10:42:26;13.20;99.90
64620;DHT22;51029;51.058;13.826;2023-03-31T10:45:23;13.20;99.90
64620;DHT22;51029;51.058;13.826;2023-03-31T10:47:53;13.20;99.90
64620;DHT22;51029;51.058;13.826;2023-03-31T10:50:33;13.30;99.90
64620;DHT22;51029;51.058;13.826;2023-03-31T10:53:04;13.40;99.90
64620;DHT22;51029;51.058;13.826;2023-03-31T10:55:45;13.50;99.90
64620;DHT22;51029;51.058;13.826;2023-03-31T10:58:32;13.60;99.90
64620;DHT22;51029;51.058;13.826;2023-03-31T11:01:20;13.60;99.90
64620;DHT22;51029;51.058;13.826;2023-03-31T11:20:07;13.70;99.90
64620;DHT22;51029;51.058;13.826;2023-03-31T11:22:46;13.70;99.90
64620;DHT22;51029;51.058;13.826;2023-03-31T11:25:37;13.60;99.90
64620;DHT22;51029;51.058;13.826;2023-03-31T11:30:51;13.40;99.90
64620;DHT22;51029;51.058;13.826;2023-03-31T11:36:33;13.40;99.90
64620;DHT22;51029;51.058;13.826;2023-03-31T11:42:07;13.20;99.90
64620;DHT22;51029;51.058;13.826;2023-03-31T11:44:43;13.10;99.90
64620;DHT22;51029;51.058;13.826;2023-03-31T11:47:18;13.20;99.90
64620;DHT22;51029;51.058;13.826;2023-03-31T11:49:51;13.10;99.90
64620;DHT22;51029;51.058;13.826;2023-03-31T11:52:30;13.10;99.90
64620;DHT22;51029;51.058;13.826;2023-03-31T11:55:14;13.10;99.90
64620;DHT22;51029;51.058;13.826;2023-03-31T11:57:45;13.10;99.90
64620;DHT22;51029;51.058;13.826;2023-03-31T12:00:20;13.00;99.90
64620;DHT22;51029;51.058;13.826;2023-03-31T12:05:57;12.90;99.90
64620;DHT22;51029;51.058;13.826;2023-03-31T12:08:50;12.80;99.90
64620;DHT22;51029;51.058;13.826;2023-03-31T12:11:23;12.90;99.90
64620;DHT22;51029;51.058;13.826;2023-03-31T12:14:10;12.80;99.90
64620;DHT22;51029;51.058;13.826;2023-03-31T12:16:48;12.70;99.90
64620;DHT22;51029;51.058;13.826;2023-03-31T12:22:19;12.50;99.90
64620;DHT22;51029;51.058;13.826;2023-03-31T12:24:46;12.40;99.90
64620;DHT22;51029;51.058;13.826;2023-03-31T12:27:29;12.40;99.90
64620;DHT22;51029;51.058;13.826;2023-03-31T12:30:05;12.40;99.90
64620;DHT22;51029;51.058;13.826;2023-03-31T12:32:38;12.50;99.90
64620;DHT22;51029;51.058;13.826;2023-03-31T12:35:21;12.60;99.90
64620;DHT22;51029;51.058;13.826;2023-03-31T12:38:07;12.70;99.90
64620;DHT22;51029;51.058;13.826;2023-03-31T12:43:32;12.60;99.90
64620;DHT22;51029;51.058;13.826;2023-03-31T12:48:59;12.60;99.90
64620;DHT22;51029;51.058;13.826;2023-03-31T12:52:03;12.50;99.90
64620;DHT22;51029;51.058;13.826;2023-03-31T12:57:34;12.40;99.90
64620;DHT22;51029;51.058;13.826;2023-03-31T13:00:22;12.40;99.90
64620;DHT22;51029;51.058;13.826;2023-03-31T13:02:49;12.30;99.90
64620;DHT22;51029;51.058;13.826;2023-03-31T13:08:03;12.40;99.90
64620;DHT22;51029;51.058;13.826;2023-03-31T13:10:30;12.30;99.90
64620;DHT22;51029;51.058;13.826;2023-03-31T13:13:10;12.40;99.90
64620;DHT22;51029;51.058;13.826;2023-03-31T13:15:37;12.40;99.90
64620;DHT22;51029;51.058;13.826;2023-03-31T13:18:05;12.40;99.90
64620;DHT22;51029;51.058;13.826;2023-03-31T13:20:35;12.40;99.90
64620;DHT22;51029;51.058;13.826;2023-03-31T13:23:06;12.40;99.90
64620;DHT22;51029;51.058;13.826;2023-03-31T13:25:44;12.40;99.90
64620;DHT22;51029;51.058;13.826;2023-03-31T13:28:13;12.40;99.90
64620;DHT22;51029;51.058;13.826;2023-03-31T13:33:42;12.50;99.90
64620;DHT22;51029;51.058;13.826;2023-03-31T13:36:21;12.70;99.90
64620;DHT22;51029;51.058;13.826;2023-03-31T13:44:50;13.30;99.90
64620;DHT22;51029;51.058;13.826;2023-03-31T13:53:19;14.50;99.90
64620;DHT22;51029;51.058;13.826;2023-03-31T13:56:18;14.20;99.90
64620;DHT22;51029;51.058;13.826;2023-03-31T14:04:37;13.40;99.90
64620;DHT22;51029;51.058;13.826;2023-03-31T14:07:16;13.30;99.90
64620;DHT22;51029;51.058;13.826;2023-03-31T14:09:44;13.00;99.90
64620;DHT22;51029;51.058;13.826;2023-03-31T14:12:32;13.00;99.90
64620;DHT22;51029;51.058;13.826;2023-03-31T14:14:58;12.90;99.90
64620;DHT22;51029;51.058;13.826;2023-03-31T14:17:27;12.80;99.90
64620;DHT22;51029;51.058;13.826;2023-03-31T14:20:21;12.80;99.90
64620;DHT22;51029;51.058;13.826;2023-03-31T14:23:21;12.80;99.90
64620;DHT22;51029;51.058;13.826;2023-03-31T14:26:04;12.80;99.90
64620;DHT22;51029;51.058;13.826;2023-03-31T14:31:18;13.30;99.90
64620;DHT22;51029;51.058;13.826;2023-03-31T14:39:29;14.10;99.90
64620;DHT22;51029;51.058;13.826;2023-03-31T14:41:58;14.30;99.90
64620;DHT22;51029;51.058;13.826;2023-03-31T14:44:24;15.00;99.90
64620;DHT22;51029;51.058;13.826;2023-03-31T14:46:50;15.30;99.90
64620;DHT22;51029;51.058;13.826;2023-03-31T14:49:34;16.30;99.90
64620;DHT22;51029;51.058;13.826;2023-03-31T14:52:03;15.50;99.90
64620;DHT22;51029;51.058;13.826;2023-03-31T14:54:33;15.80;99.90
64620;DHT22;51029;51.058;13.826;2023-03-31T14:57:03;19.40;99.90
64620;DHT22;51029;51.058;13.826;2023-03-31T14:59:31;22.50;99.90
64620;DHT22;51029;51.058;13.826;2023-03-31T15:01:59;24.50;98.40
64620;DHT22;51029;51.058;13.826;2023-03-31T15:04:28;25.50;90.90
64620;DHT22;51029;51.058;13.826;2023-03-31T15:06:55;26.00;80.20
64620;DHT22;51029;51.058;13.826;2023-03-31T15:09:27;26.50;74.80
64620;DHT22;51029;51.058;13.826;2023-03-31T15:12:06;27.70;74.10
64620;DHT22;51029;51.058;13.826;2023-03-31T15:14:44;27.70;64.60
64620;DHT22;51029;51.058;13.826;2023-03-31T15:17:22;26.70;61.10
64620;DHT22;51029;51.058;13.826;2023-03-31T15:19:56;26.00;69.00
64620;DHT22;51029;51.058;13.826;2023-03-31T15:22:24;25.00;75.60
64620;DHT22;51029;51.058;13.826;2023-03-31T15:24:51;24.50;77.40
64620;DHT22;51029;51.058;13.826;2023-03-31T15:27:37;24.50;79.60
64620;DHT22;51029;51.058;13.826;2023-03-31T15:30:07;23.60;79.90
64620;DHT22;51029;51.058;13.826;2023-03-31T15:32:35;21.40;88.40
64620;DHT22;51029;51.058;13.826;2023-03-31T15:35:02;19.10;99.90
64620;DHT22;51029;51.058;13.826;2023-03-31T15:37:34;17.60;99.90
64620;DHT22;51029;51.058;13.826;2023-03-31T15:40:03;16.70;99.90
64620;DHT22;51029;51.058;13.826;2023-03-31T15:42:33;16.10;99.90
64620;DHT22;51029;51.058;13.826;2023-03-31T15:47:50;14.90;99.90
64620;DHT22;51029;51.058;13.826;2023-03-31T15:50:17;14.70;99.90
64620;DHT22;51029;51.058;13.826;2023-03-31T15:52:47;14.50;99.90
64620;DHT22;51029;51.058;13.826;2023-03-31T15:57:48;14.50;99.90
64620;DHT22;51029;51.058;13.826;2023-03-31T16:03:00;14.70;99.90
64620;DHT22;51029;51.058;13.826;2023-03-31T16:08:10;15.30;99.90
64620;DHT22;51029;51.058;13.826;2023-03-31T16:10:38;15.30;99.90
64620;DHT22;51029;51.058;13.826;2023-03-31T16:13:05;15.40;99.90
64620;DHT22;51029;51.058;13.826;2023-03-31T16:15:41;15.40;99.90
64620;DHT22;51029;51.058;13.826;2023-03-31T16:18:11;15.30;99.90
64620;DHT22;51029;51.058;13.826;2023-03-31T16:20:43;15.20;99.90
64620;DHT22;51029;51.058;13.826;2023-03-31T16:23:19;15.00;99.90
64620;DHT22;51029;51.058;13.826;2023-03-31T16:25:46;14.80;99.90
64620;DHT22;51029;51.058;13.826;2023-03-31T16:28:15;14.70;99.90
64620;DHT22;51029;51.058;13.826;2023-03-31T16:30:43;14.40;99.90
64620;DHT22;51029;51.058;13.826;2023-03-31T16:33:20;14.20;99.90
64620;DHT22;51029;51.058;13.826;2023-03-31T16:35:49;13.90;99.90
64620;DHT22;51029;51.058;13.826;2023-03-31T16:38:18;13.80;99.90
64620;DHT22;51029;51.058;13.826;2023-03-31T16:40:46;13.70;99.90
64620;DHT22;51029;51.058;13.826;2023-03-31T16:45:47;13.50;99.90
64620;DHT22;51029;51.058;13.826;2023-03-31T16:48:16;13.40;99.90
64620;DHT22;51029;51.058;13.826;2023-03-31T16:50:47;13.30;99.90
64620;DHT22;51029;51.058;13.826;2023-03-31T16:53:16;13.30;99.90
64620;DHT22;51029;51.058;13.826;2023-03-31T16:55:43;13.10;99.90
64620;DHT22;51029;51.058;13.826;2023-03-31T16:58:08;13.00;99.90
64620;DHT22;51029;51.058;13.826;2023-03-31T17:00:35;12.90;99.90
64620;DHT22;51029;51.058;13.826;2023-03-31T17:03:02;12.90;99.90
64620;DHT22;51029;51.058;13.826;2023-03-31T17:05:28;12.80;99.90
64620;DHT22;51029;51.058;13.826;2023-03-31T17:07:55;12.70;99.90
64620;DHT22;51029;51.058;13.826;2023-03-31T17:10:21;12.60;99.90
64620;DHT22;51029;51.058;13.826;2023-03-31T17:12:46;12.40;99.90
64620;DHT22;51029;51.058;13.826;2023-03-31T17:15:12;12.30;99.90
64620;DHT22;51029;51.058;13.826;2023-03-31T17:17:38;12.10;99.90
64620;DHT22;51029;51.058;13.826;2023-03-31T17:20:04;12.00;99.90
64620;DHT22;51029;51.058;13.826;2023-03-31T17:22:31;11.90;99.90
64620;DHT22;51029;51.058;13.826;2023-03-31T17:24:57;12.00;99.90
64620;DHT22;51029;51.058;13.826;2023-03-31T17:27:27;11.90;99.90
64620;DHT22;51029;51.058;13.826;2023-03-31T17:29:53;11.70;99.90
64620;DHT22;51029;51.058;13.826;2023-03-31T17:32:19;11.50;99.90
64620;DHT22;51029;51.058;13.826;2023-03-31T17:34:44;11.30;99.90
64620;DHT22;51029;51.058;13.826;2023-03-31T17:37:12;11.10;99.90
64620;DHT22;51029;51.058;13.826;2023-03-31T17:39:38;11.00;99.90
64620;DHT22;51029;51.058;13.826;2023-03-31T17:42:03;10.90;99.90
64620;DHT22;51029;51.058;13.826;2023-03-31T17:44:29;10.80;99.90
64620;DHT22;51029;51.058;13.826;2023-03-31T17:46:54;10.70;99.90
64620;DHT22;51029;51.058;13.826;2023-03-31T17:49:20;10.70;99.90
64620;DHT22;51029;51.058;13.826;2023-03-31T17:51:46;10.70;99.90
64620;DHT22;51029;51.058;13.826;2023-03-31T17:54:11;10.80;99.90
64620;DHT22;51029;51.058;13.826;2023-03-31T17:56:37;10.80;99.90
64620;DHT22;51029;51.058;13.826;2023-03-31T17:59:03;11.00;99.90